createdAt,value
2023-03-21T00:02:17.384Z,68.97
2023-03-21T00:06:22.279Z,68.96
2023-03-21T00:10:40.522Z,68.92
2023-03-21T00:14:51.499Z,68.57
2023-03-21T00:18:55.377Z,69.40
2023-03-21T00:22:55.785Z,69.72
2023-03-21T00:27:10.700Z,69.83
2023-03-21T00:31:19.745Z,70.17
2023-03-21T00:35:53.702Z,70.68
2023-03-21T00:39:41.594Z,71.78
2023-03-21T00:43:44.584Z,71.59
2023-03-21T00:47:45.688Z,71.52
2023-03-21T00:51:46.854Z,72.49
2023-03-21T00:55:48.109Z,73.00
2023-03-21T00:59:51.271Z,73.15
2023-03-21T01:04:04.980Z,72.89
2023-03-21T01:08:17.077Z,72.75
2023-03-21T01:12:24.401Z,72.82
2023-03-21T01:16:28.341Z,72.78
2023-03-21T01:20:29.045Z,73.02
2023-03-21T01:24:29.953Z,73.94
2023-03-21T01:28:32.883Z,74.11
2023-03-21T01:32:36.424Z,74.02
2023-03-21T01:36:37.055Z,73.92
2023-03-21T01:40:42.349Z,73.52
2023-03-21T01:45:03.805Z,74.22
2023-03-21T01:49:35.076Z,74.25
2023-03-21T01:53:51.310Z,75.24
2023-03-21T01:58:05.928Z,74.80
2023-03-21T02:02:33.354Z,74.99
2023-03-21T02:07:12.715Z,74.93
2023-03-21T02:11:19.922Z,75.08
2023-03-21T02:15:20.745Z,75.09
2023-03-21T02:20:39.925Z,74.46
2023-03-21T02:25:32.374Z,74.20
2023-03-21T02:30:28.771Z,74.13
2023-03-21T02:35:02.938Z,73.90
2023-03-21T02:39:18.118Z,73.63
2023-03-21T02:43:30.676Z,73.64
2023-03-21T02:47:38.895Z,73.49
2023-03-21T02:51:44.038Z,73.60
2023-03-21T02:55:49.301Z,73.51
2023-03-21T02:59:56.877Z,73.33
2023-03-21T03:04:06.582Z,74.10
2023-03-21T03:08:56.335Z,75.13
2023-03-21T03:13:22.083Z,75.96
2023-03-21T03:17:44.221Z,76.70
2023-03-21T03:21:52.763Z,76.69
2023-03-21T03:26:00.901Z,77.14
2023-03-21T03:30:08.040Z,76.91
2023-03-21T03:34:18.104Z,76.59
2023-03-21T03:38:23.954Z,76.20
2023-03-21T03:42:36.581Z,76.74
2023-03-21T03:47:04.934Z,77.23
2023-03-21T03:51:13.816Z,77.40
2023-03-21T03:55:41.899Z,76.74
2023-03-21T03:59:49.477Z,76.42
2023-03-21T04:04:12.264Z,76.19
2023-03-21T04:08:13.646Z,75.61
2023-03-21T04:12:17.578Z,75.66
2023-03-21T04:16:35.836Z,76.62
2023-03-21T04:20:40.490Z,77.06
2023-03-21T04:24:43.025Z,76.71
2023-03-21T04:28:43.502Z,76.85
2023-03-21T04:33:01.284Z,76.83
2023-03-21T04:37:11.208Z,77.03
2023-03-21T04:41:13.981Z,77.01
2023-03-21T04:45:15.789Z,77.61
2023-03-21T04:49:18.693Z,77.52
2023-03-21T04:53:22.559Z,77.09
2023-03-21T04:57:23.383Z,77.39
2023-03-21T05:01:23.732Z,78.21
2023-03-21T05:05:24.119Z,78.10
2023-03-21T05:09:28.688Z,77.86
2023-03-21T05:13:28.946Z,78.00
2023-03-21T05:17:29.924Z,77.77
2023-03-21T05:21:34.432Z,78.06
2023-03-21T05:25:38.423Z,78.12
2023-03-21T05:29:49.875Z,77.94
2023-03-21T05:33:51.594Z,77.17
2023-03-21T05:37:53.999Z,76.74
2023-03-21T05:41:59.404Z,76.87
2023-03-21T05:46:01.148Z,76.87
2023-03-21T05:50:04.053Z,76.44
2023-03-21T05:54:06.567Z,75.97
2023-03-21T05:58:10.850Z,77.64
2023-03-21T06:02:13.279Z,76.77
2023-03-21T06:06:14.498Z,76.00
2023-03-21T06:10:25.045Z,76.65
2023-03-21T06:14:28.966Z,75.42
2023-03-21T06:18:43.734Z,73.23
2023-03-21T06:22:54.641Z,71.75
2023-03-21T06:26:56.229Z,70.21
2023-03-21T06:31:03.136Z,69.70
2023-03-21T06:35:05.241Z,68.22
2023-03-21T06:39:11.084Z,66.97
2023-03-21T06:43:13.895Z,65.20
2023-03-21T06:47:16.933Z,64.79
2023-03-21T06:51:20.117Z,63.95
2023-03-21T06:55:34.652Z,63.05
2023-03-21T06:59:36.288Z,62.71
2023-03-21T07:04:00.994Z,60.17
2023-03-21T07:08:03.268Z,61.39
2023-03-21T07:12:07.260Z,60.49
2023-03-21T07:16:25.211Z,61.02
2023-03-21T07:20:29.052Z,60.70
2023-03-21T07:24:29.654Z,60.66
2023-03-21T07:28:32.103Z,58.93
2023-03-21T07:32:35.653Z,58.00
2023-03-21T07:36:40.663Z,56.49
2023-03-21T07:40:40.979Z,54.26
2023-03-21T07:44:42.834Z,54.43
2023-03-21T07:48:43.351Z,52.70
2023-03-21T07:52:46.698Z,52.78
2023-03-21T07:56:49.933Z,51.80
2023-03-21T08:00:53.979Z,51.08
2023-03-21T08:04:58.550Z,51.13
2023-03-21T08:09:03.927Z,50.95
2023-03-21T08:13:04.266Z,51.20
2023-03-21T08:17:04.774Z,51.39
2023-03-21T08:21:05.357Z,50.45
2023-03-21T08:25:14.059Z,49.36
2023-03-21T08:29:14.906Z,47.79
2023-03-21T08:33:16.161Z,45.97
2023-03-21T08:37:16.462Z,46.44
2023-03-21T08:41:20.892Z,44.33
2023-03-21T08:45:22.884Z,43.82
2023-03-21T08:49:23.101Z,44.22
2023-03-21T08:53:26.823Z,43.67
2023-03-21T08:57:29.908Z,41.21
2023-03-21T09:01:31.090Z,41.82
2023-03-21T09:05:32.015Z,39.82
2023-03-21T09:09:32.704Z,38.81
2023-03-21T09:13:35.578Z,37.71
2023-03-21T09:17:36.535Z,36.61
2023-03-21T09:21:37.019Z,36.36
2023-03-21T09:25:37.747Z,36.86
2023-03-21T09:29:40.945Z,38.20
2023-03-21T09:33:42.605Z,37.69
2023-03-21T09:37:43.143Z,36.96
2023-03-21T09:42:15.333Z,37.16
2023-03-21T09:46:29.738Z,37.94
2023-03-21T09:50:36.634Z,35.58
2023-03-21T09:54:43.131Z,33.78
2023-03-21T09:58:47.900Z,32.51
2023-03-21T10:02:55.506Z,33.08
2023-03-21T10:07:04.303Z,33.00
2023-03-21T10:11:13.386Z,33.88
2023-03-21T10:15:20.603Z,33.72
2023-03-21T10:19:23.823Z,33.27
2023-03-21T10:23:30.834Z,34.36
2023-03-21T10:27:31.237Z,31.84
2023-03-21T10:31:33.656Z,33.13
2023-03-21T10:35:40.335Z,31.02
2023-03-21T10:39:45.705Z,31.83
2023-03-21T10:43:51.420Z,32.81
2023-03-21T10:47:55.814Z,32.75
2023-03-21T10:52:04.247Z,30.69
2023-03-21T10:56:10.815Z,29.99
2023-03-21T11:00:23.186Z,31.20
2023-03-21T11:04:34.241Z,29.59
2023-03-21T11:08:46.684Z,29.88
2023-03-21T11:12:55.623Z,28.36
2023-03-21T11:17:00.904Z,28.97
2023-03-21T11:21:07.864Z,28.98
2023-03-21T11:25:23.773Z,28.05
2023-03-21T11:29:36.475Z,29.50
2023-03-21T11:33:41.292Z,32.06
2023-03-21T11:37:47.959Z,31.08
2023-03-21T11:41:54.837Z,32.58
2023-03-21T11:46:01.583Z,34.05
2023-03-21T11:50:05.378Z,31.62
2023-03-21T11:54:16.035Z,33.44
2023-03-21T11:58:40.322Z,32.60
2023-03-21T12:03:11.437Z,32.47
2023-03-21T12:07:39.738Z,32.69
2023-03-21T12:12:09.178Z,34.14
2023-03-21T12:16:36.490Z,33.98
2023-03-21T12:20:45.398Z,31.91
2023-03-21T12:24:57.101Z,30.23
2023-03-21T12:29:51.333Z,30.01
2023-03-21T12:34:21.797Z,28.34
2023-03-21T12:38:31.554Z,29.37
2023-03-21T12:43:08.026Z,28.28
2023-03-21T12:47:17.018Z,30.06
2023-03-21T12:51:27.146Z,29.50
2023-03-21T12:55:39.787Z,30.68
2023-03-21T12:59:59.351Z,29.39
2023-03-21T13:04:36.828Z,28.58
2023-03-21T13:08:49.686Z,29.28
2023-03-21T13:13:15.768Z,28.39
2023-03-21T13:17:30.249Z,30.43
2023-03-21T13:21:49.296Z,31.48
2023-03-21T13:25:56.741Z,31.96
2023-03-21T13:30:09.101Z,31.63
2023-03-21T13:34:13.520Z,32.04
2023-03-21T13:38:22.329Z,32.66
2023-03-21T13:42:36.101Z,29.65
2023-03-21T13:46:53.895Z,29.22
2023-03-21T13:51:04.100Z,29.48
2023-03-21T13:55:18.559Z,30.23
2023-03-21T13:59:44.800Z,29.32
2023-03-21T14:03:51.270Z,30.98
2023-03-21T14:08:12.703Z,30.11
2023-03-21T14:12:21.774Z,30.74
2023-03-21T14:16:32.841Z,33.51
2023-03-21T14:20:38.447Z,33.91
2023-03-21T14:24:39.107Z,34.56
2023-03-21T14:28:42.757Z,34.24
2023-03-21T14:32:47.695Z,35.61
2023-03-21T14:36:57.736Z,35.65
2023-03-21T14:41:00.067Z,36.18
2023-03-21T14:45:02.217Z,35.96
2023-03-21T14:49:22.014Z,35.19
2023-03-21T14:53:25.960Z,34.70
2023-03-21T14:57:37.061Z,35.63
2023-03-21T15:01:46.752Z,35.77
2023-03-21T15:05:55.945Z,35.07
2023-03-21T15:10:05.207Z,35.88
2023-03-21T15:14:10.676Z,35.45
2023-03-21T15:18:17.686Z,36.47
2023-03-21T15:22:33.236Z,37.43
2023-03-21T15:26:34.793Z,36.96
2023-03-21T15:30:36.803Z,37.11
2023-03-21T15:34:37.262Z,37.24
2023-03-21T15:38:45.310Z,38.51
2023-03-21T15:42:45.949Z,38.88
2023-03-21T15:46:49.808Z,39.46
2023-03-21T15:50:59.891Z,40.33
2023-03-21T15:55:04.402Z,40.96
2023-03-21T15:59:35.284Z,41.04
2023-03-21T16:04:16.533Z,41.58
2023-03-21T16:08:32.635Z,41.64
2023-03-21T16:12:42.164Z,40.60
2023-03-21T16:16:49.505Z,41.67
2023-03-21T16:20:50.430Z,42.17
2023-03-21T16:24:54.992Z,42.86
2023-03-21T16:28:59.104Z,42.63
2023-03-21T16:32:59.841Z,42.35
2023-03-21T16:37:00.196Z,43.35
2023-03-21T16:41:01.070Z,43.49
2023-03-21T16:45:04.097Z,43.50
2023-03-21T16:49:04.733Z,43.84
2023-03-21T16:53:06.037Z,44.41
2023-03-21T16:57:08.896Z,45.04
2023-03-21T17:01:19.299Z,45.58
2023-03-21T17:05:20.000Z,45.63
2023-03-21T17:09:27.448Z,45.52
2023-03-21T17:13:28.339Z,46.93
2023-03-21T17:17:31.158Z,46.39
2023-03-21T17:21:32.690Z,47.57
2023-03-21T17:25:33.121Z,47.49
2023-03-21T17:29:33.403Z,47.74
2023-03-21T17:33:36.804Z,47.96
2023-03-21T17:37:43.199Z,48.12
2023-03-21T17:41:44.395Z,49.01
2023-03-21T17:45:45.055Z,48.67
2023-03-21T17:49:47.849Z,49.07
2023-03-21T17:53:51.023Z,48.80
2023-03-21T17:57:54.552Z,49.19
2023-03-21T18:01:54.863Z,50.57
2023-03-21T18:05:57.940Z,50.76
2023-03-21T18:09:58.340Z,50.59
2023-03-21T18:14:14.359Z,50.48
2023-03-21T18:18:17.283Z,50.94
2023-03-21T18:22:21.103Z,50.49
2023-03-21T18:26:25.988Z,50.64
2023-03-21T18:30:50.013Z,50.68
2023-03-21T18:34:53.434Z,50.22
2023-03-21T18:39:00.007Z,50.75
2023-03-21T18:47:25.979Z,52.17
2023-03-21T18:51:30.505Z,51.98
2023-03-21T18:55:45.819Z,52.82
2023-03-21T18:59:52.216Z,52.72
2023-03-21T19:04:20.000Z,53.57
2023-03-21T19:08:24.202Z,56.13
2023-03-21T19:12:31.650Z,57.93
2023-03-21T19:16:56.234Z,58.60
2023-03-21T19:21:01.314Z,59.24
2023-03-21T19:25:05.492Z,58.71
2023-03-21T19:29:15.382Z,59.40
2023-03-21T19:33:18.151Z,58.65
2023-03-21T19:37:20.647Z,59.14
2023-03-21T19:41:24.628Z,58.54
2023-03-21T19:45:34.107Z,59.78
2023-03-21T19:50:30.794Z,60.31
2023-03-21T19:54:09.974Z,59.75
2023-03-21T19:58:16.980Z,59.68
2023-03-21T20:02:34.921Z,59.22
2023-03-21T20:06:38.643Z,59.65
2023-03-21T20:10:39.933Z,60.07
2023-03-21T20:14:46.421Z,61.73
2023-03-21T20:18:50.247Z,62.72
2023-03-21T20:23:06.388Z,62.01
2023-03-21T20:27:09.815Z,61.82
2023-03-21T20:31:10.698Z,61.97
2023-03-21T20:35:31.300Z,62.26
2023-03-21T20:39:38.508Z,63.19
2023-03-21T20:48:00.594Z,62.99
2023-03-21T20:56:31.191Z,63.98
2023-03-21T21:00:32.190Z,64.12
2023-03-21T21:05:12.176Z,63.87
2023-03-21T21:08:59.457Z,63.23
2023-03-21T21:13:00.488Z,63.30
2023-03-21T21:17:07.783Z,63.00
2023-03-21T21:21:18.039Z,63.44
2023-03-21T21:25:24.265Z,62.81
2023-03-21T21:29:28.633Z,63.32
2023-03-21T21:33:29.528Z,63.20
2023-03-21T21:37:34.065Z,63.51
2023-03-21T21:41:37.724Z,63.84
2023-03-21T21:45:38.492Z,63.13
2023-03-21T21:49:39.557Z,63.39
2023-03-21T21:53:41.074Z,63.36
2023-03-21T21:57:44.077Z,63.54
2023-03-21T22:01:46.795Z,64.20
2023-03-21T22:05:47.889Z,64.66
2023-03-21T22:09:49.529Z,64.98
2023-03-21T22:13:52.483Z,65.19
2023-03-21T22:17:53.786Z,65.12
2023-03-21T22:21:54.485Z,65.66
2023-03-21T22:25:57.572Z,65.83
2023-03-21T22:30:04.676Z,66.13
2023-03-21T22:34:06.380Z,66.25
2023-03-21T22:38:10.606Z,66.61
2023-03-21T22:42:10.953Z,66.84
2023-03-21T22:46:13.982Z,66.72
2023-03-21T22:50:14.717Z,67.07
2023-03-21T22:54:15.046Z,67.37
2023-03-21T22:58:15.968Z,67.25
2023-03-21T23:02:23.680Z,67.81
2023-03-21T23:06:27.622Z,68.36
2023-03-21T23:10:31.747Z,68.53
2023-03-21T23:14:34.086Z,68.53
2023-03-21T23:18:40.461Z,68.39
2023-03-21T23:22:43.361Z,68.45
2023-03-21T23:26:44.429Z,67.99
2023-03-21T23:30:45.358Z,69.67
2023-03-21T23:34:50.524Z,69.74
2023-03-21T23:38:51.020Z,68.88
2023-03-21T23:42:51.714Z,69.56
2023-03-21T23:46:52.462Z,69.25
2023-03-21T23:50:55.775Z,69.18
2023-03-21T23:54:56.331Z,69.10
2023-03-21T23:58:57.022Z,69.25
